Time;durP1;ratioP1;P1;durP2;ratioP2;P2;SDS_P1;SDS_P2;PMS_P1;PMS_P2;Temp;Humidity;BMP_temperature;BMP_pressure;BME280_temperature;BME280_humidity;BME280_pressure;Samples;Min_cycle;Max_cycle;Signal;HPM_P1;HPM_P2
2022/10/19 00:01:42;;;;;;;;;14.75;11.50;;;;;15.02;100.00;101469.75;4937796;28;47581;-90
2022/10/19 00:04:07;;;;;;;;;13.00;12.25;;;;;14.80;100.00;101417.97;4938319;28;45459;-90
2022/10/19 00:06:35;;;;;;;;;15.25;11.25;;;;;15.39;100.00;101513.25;4970857;28;45514;-91
2022/10/19 00:09:02;;;;;;;;;11.25;10.75;;;;;15.06;100.00;101465.22;4938751;28;45426;-90
2022/10/19 00:11:29;;;;;;;;;15.75;14.50;;;;;15.39;100.00;101515.91;4971398;28;46995;-90
2022/10/19 00:13:59;;;;;;;;;13.50;12.00;;;;;15.14;100.00;101457.94;4962187;28;45879;-90
2022/10/19 00:16:27;;;;;;;;;14.00;12.00;;;;;15.16;100.00;101465.88;4956206;28;45516;-90
2022/10/19 00:18:56;;;;;;;;;12.50;10.75;;;;;15.28;100.00;101487.75;4956638;28;45417;-89
2022/10/19 00:21:22;;;;;;;;;12.50;11.00;;;;;15.42;100.00;101505.16;4958879;28;46377;-89
2022/10/19 00:23:47;;;;;;;;;11.50;11.50;;;;;14.85;100.00;101408.06;4958097;28;45412;-90
2022/10/19 00:26:13;;;;;;;;;10.25;10.25;;;;;14.73;100.00;101383.53;4957121;28;45441;-86
2022/10/19 00:28:38;;;;;;;;;11.25;11.00;;;;;14.96;100.00;101416.69;4956355;28;45435;-87
2022/10/19 00:31:07;;;;;;;;;5.00;5.00;;;;;15.38;100.00;101485.75;4954479;28;45526;-87
2022/10/19 00:33:33;;;;;;;;;13.25;12.00;;;;;15.23;100.00;101473.69;4957647;28;45317;-87
2022/10/19 00:35:58;;;;;;;;;12.75;11.50;;;;;14.70;100.00;101382.72;4963892;28;45338;-85
2022/10/19 00:38:24;;;;;;;;;11.25;9.50;;;;;14.59;100.00;101356.38;4974990;28;45564;-86
2022/10/19 00:40:49;;;;;;;;;12.25;12.25;;;;;15.22;100.00;101458.59;4973978;28;47144;-86
2022/10/19 00:43:17;;;;;;;;;13.25;12.75;;;;;14.80;100.00;101378.91;4975455;28;45425;-86
2022/10/19 00:45:43;;;;;;;;;10.25;9.25;;;;;15.04;100.00;101420.00;4954179;28;45472;-86
2022/10/19 00:48:12;;;;;;;;;10.75;9.50;;;;;14.55;100.00;101331.59;4954539;28;45532;-86
2022/10/19 00:50:38;;;;;;;;;13.00;9.75;;;;;14.49;100.00;101341.53;4956363;28;45358;-87
2022/10/19 00:53:04;;;;;;;;;10.50;9.50;;;;;14.55;100.00;101336.06;4954806;28;45315;-86
2022/10/19 00:55:29;;;;;;;;;10.25;7.75;;;;;14.71;100.00;101374.72;4954811;28;45328;-87
2022/10/19 00:57:55;;;;;;;;;13.00;12.25;;;;;14.29;100.00;101300.34;4956252;28;45234;-86
2022/10/19 01:00:20;;;;;;;;;11.75;11.75;;;;;14.50;100.00;101338.84;4967710;28;46037;-89
2022/10/19 01:02:46;;;;;;;;;11.00;9.00;;;;;14.95;100.00;101404.28;4967197;28;46213;-90
2022/10/19 01:05:12;;;;;;;;;9.50;8.25;;;;;14.65;100.00;101369.53;4985878;28;45392;-90
2022/10/19 01:07:38;;;;;;;;;10.00;9.00;;;;;14.13;100.00;101285.66;4962126;28;45357;-90
2022/10/19 01:10:04;;;;;;;;;11.75;9.00;;;;;14.48;100.00;101335.31;4955305;28;45516;-86
2022/10/19 01:13:04;;;;;;;;;12.00;9.00;;;;;15.19;100.00;101455.16;4955940;28;45460;-86
2022/10/19 01:15:49;;;;;;;;;12.25;11.00;;;;;14.65;100.00;101363.34;4948547;28;45504;-86
2022/10/19 01:18:35;;;;;;;;;10.75;10.25;;;;;14.98;100.00;101425.50;4936593;28;45426;-87
2022/10/19 01:21:28;;;;;;;;;14.25;12.75;;;;;15.13;100.00;101452.66;4945166;28;48224;-86
2022/10/19 01:24:12;;;;;;;;;13.50;10.25;;;;;15.09;100.00;101443.84;4960581;28;45499;-86
2022/10/19 01:26:46;;;;;;;;;13.25;10.00;;;;;15.09;100.00;101447.41;4957801;28;45366;-86
2022/10/19 01:29:17;;;;;;;;;9.75;9.50;;;;;14.70;100.00;101383.59;4959080;28;45289;-86
2022/10/19 01:32:03;;;;;;;;;14.00;12.50;;;;;14.57;100.00;101366.16;4957620;28;48470;-86
2022/10/19 01:34:59;;;;;;;;;10.75;10.25;;;;;14.26;100.00;101300.41;4957090;28;45484;-86
2022/10/19 01:37:45;;;;;;;;;12.00;12.00;;;;;15.07;100.00;101435.91;4958440;28;45589;-90
2022/10/19 01:40:27;;;;;;;;;12.00;11.00;;;;;14.52;100.00;101355.63;4960284;28;45164;-90
2022/10/19 01:43:02;;;;;;;;;11.75;11.50;;;;;15.04;100.00;101446.63;4972823;28;46249;-89
2022/10/19 01:45:40;;;;;;;;;10.25;8.50;;;;;14.52;100.00;101346.78;4959546;28;45464;-90
2022/10/19 01:48:21;;;;;;;;;8.50;7.50;;;;;14.44;100.00;101332.75;4959912;28;45227;-90
2022/10/19 01:51:05;;;;;;;;;11.00;11.00;;;;;14.64;100.00;101369.59;4976521;28;45637;-90
2022/10/19 01:53:36;;;;;;;;;10.00;9.00;;;;;14.88;100.00;101416.88;4958550;28;48032;-90
2022/10/19 01:56:04;;;;;;;;;7.50;7.00;;;;;14.34;100.00;101317.03;4958739;28;45985;-89
2022/10/19 01:58:34;;;;;;;;;9.25;8.25;;;;;14.43;100.00;101331.03;4957731;28;45405;-90
2022/10/19 02:01:04;;;;;;;;;9.50;9.50;;;;;14.94;100.00;101413.19;4960050;28;45390;-90
2022/10/19 02:03:32;;;;;;;;;9.50;8.75;;;;;14.40;100.00;101329.31;4961396;28;47388;-90
2022/10/19 02:05:59;;;;;;;;;9.50;8.50;;;;;13.82;100.00;101220.81;4957762;28;45341;-90
2022/10/19 02:08:33;;;;;;;;;9.00;9.00;;;;;14.75;100.00;101365.72;4956303;28;45384;-90
2022/10/19 02:11:00;;;;;;;;;8.00;8.00;;;;;14.03;100.00;101248.66;4939253;28;45312;-89
2022/10/19 02:13:30;;;;;;;;;11.00;8.50;;;;;13.97;100.00;101232.88;4940498;28;46993;-90
2022/10/19 02:16:00;;;;;;;;;9.75;9.00;;;;;14.30;100.00;101299.44;4958012;28;45455;-90
2022/10/19 02:18:31;;;;;;;;;10.75;10.00;;;;;14.90;100.00;101392.88;4939813;28;45314;-90
2022/10/19 02:20:59;;;;;;;;;11.00;9.25;;;;;14.30;100.00;101296.78;4940439;28;45469;-90
2022/10/19 02:23:26;;;;;;;;;9.50;9.50;;;;;14.83;100.00;101389.47;4954138;28;47195;-91
2022/10/19 02:25:53;;;;;;;;;10.00;10.00;;;;;14.82;100.00;101381.53;4942150;28;45472;-90
2022/10/19 02:28:19;;;;;;;;;12.00;10.25;;;;;14.80;100.00;101384.22;4949607;28;45430;-90
2022/10/19 02:30:44;;;;;;;;;10.50;10.00;;;;;13.70;100.00;101183.03;4947816;28;45418;-90
2022/10/19 02:33:11;;;;;;;;;9.75;9.75;;;;;14.22;100.00;101280.13;4941987;28;45370;-91
2022/10/19 02:35:37;;;;;;;;;10.25;7.00;;;;;13.63;100.00;101167.22;4940755;28;45402;-89
2022/10/19 02:38:04;;;;;;;;;12.25;10.75;;;;;14.22;100.00;101277.44;4944305;28;45517;-90
2022/10/19 02:40:44;;;;;;;;;9.25;9.25;;;;;14.30;100.00;101278.16;4959351;28;45545;-90
2022/10/19 02:43:13;;;;;;;;;12.50;12.00;;;;;14.79;100.00;101355.00;4958241;28;47015;-90
2022/10/19 02:45:51;;;;;;;;;13.25;12.00;;;;;14.29;100.00;101281.72;4938900;28;45480;-89
2022/10/19 02:48:21;;;;;;;;;11.25;10.00;;;;;14.52;100.00;101317.50;4941497;28;45194;-90
2022/10/19 02:50:47;;;;;;;;;6.25;6.25;;;;;14.10;100.00;101243.19;4955834;28;45457;-90
2022/10/19 02:53:13;;;;;;;;;10.50;9.25;;;;;14.10;100.00;101249.38;4939678;28;46495;-89
2022/10/19 02:55:39;;;;;;;;;10.75;7.75;;;;;14.04;100.00;101218.53;4965442;28;45803;-90
2022/10/19 02:58:04;;;;;;;;;12.25;11.00;;;;;14.74;100.00;101337.38;4952148;28;45397;-90
2022/10/19 03:00:29;;;;;;;;;13.25;10.00;;;;;14.55;100.00;101293.50;4965567;28;44810;-89
2022/10/19 03:02:55;;;;;;;;;10.25;9.75;;;;;14.12;100.00;101236.03;4969746;28;46524;-86
2022/10/19 03:05:20;;;;;;;;;9.25;9.25;;;;;13.53;100.00;101136.50;4961436;28;44777;-86
2022/10/19 03:07:45;;;;;;;;;11.50;10.00;;;;;14.72;100.00;101327.69;4958696;28;45446;-86
2022/10/19 03:10:11;;;;;;;;;13.50;12.50;;;;;14.02;100.00;101198.19;4960891;28;45357;-90
2022/10/19 03:12:36;;;;;;;;;8.50;8.50;;;;;14.75;100.00;101332.94;4965603;28;48268;-90
2022/10/19 03:15:02;;;;;;;;;9.00;9.00;;;;;14.33;100.00;101254.16;4958124;28;46108;-89
2022/10/19 03:17:28;;;;;;;;;12.00;9.00;;;;;13.36;100.00;101088.19;4960211;28;45295;-90
2022/10/19 03:19:53;;;;;;;;;13.00;12.50;;;;;14.43;100.00;101275.19;4957787;28;45338;-89
2022/10/19 03:22:18;;;;;;;;;15.25;11.25;;;;;14.28;100.00;101231.25;4957487;28;47574;-89
2022/10/19 03:24:44;;;;;;;;;13.50;12.50;;;;;13.44;100.00;101099.53;4957450;28;45434;-90
2022/10/19 03:27:09;;;;;;;;;13.50;10.50;;;;;14.15;100.00;101217.38;4959457;28;45362;-90
2022/10/19 03:29:35;;;;;;;;;12.50;11.75;;;;;14.18;100.00;101219.94;4958213;28;45462;-91
2022/10/19 03:32:00;;;;;;;;;13.50;12.25;;;;;13.94;100.00;101179.78;4983627;28;47164;-90
2022/10/19 03:34:26;;;;;;;;;9.00;9.00;;;;;13.50;100.00;101096.72;4980237;28;45463;-90
2022/10/19 03:36:51;;;;;;;;;11.50;9.00;;;;;13.48;100.00;101117.13;4978118;28;45428;-90
2022/10/19 03:39:17;;;;;;;;;7.25;6.25;;;;;14.42;100.00;101254.81;4976440;28;45385;-90
2022/10/19 03:41:42;;;;;;;;;10.75;10.00;;;;;14.12;100.00;101228.06;4975670;28;47171;-89
2022/10/19 03:44:09;;;;;;;;;10.75;9.25;;;;;14.62;100.00;101300.44;4956976;28;45620;-90
2022/10/19 03:46:35;;;;;;;;;12.25;12.25;;;;;13.89;100.00;101184.31;4937906;28;45337;-89
2022/10/19 03:49:01;;;;;;;;;13.75;11.00;;;;;14.50;100.00;101275.00;4954089;28;45270;-89
2022/10/19 03:51:27;;;;;;;;;9.00;9.00;;;;;14.67;100.00;101297.69;4941438;28;45592;-89
2022/10/19 03:53:59;;;;;;;;;11.25;9.00;;;;;13.61;100.00;101118.59;4938910;28;46293;-90
2022/10/19 03:56:27;;;;;;;;;11.00;11.00;;;;;13.81;100.00;101143.78;4937204;28;45485;-90
2022/10/19 03:58:53;;;;;;;;;13.50;12.00;;;;;14.61;100.00;101288.06;4956103;28;45481;-89
2022/10/19 04:01:23;;;;;;;;;11.25;10.00;;;;;14.62;100.00;101287.16;4937386;28;48088;-90
2022/10/19 04:03:53;;;;;;;;;10.25;10.25;;;;;13.81;100.00;101162.38;4938441;28;45407;-89
2022/10/19 04:06:23;;;;;;;;;10.75;7.00;;;;;14.59;100.00;101289.84;4953456;28;45382;-90
2022/10/19 04:08:49;;;;;;;;;11.00;10.50;;;;;14.08;100.00;101215.78;4940032;28;45337;-90
2022/10/19 04:11:21;;;;;;;;;11.50;11.50;;;;;13.95;100.00;101186.84;4953955;28;47173;-90
2022/10/19 04:13:51;;;;;;;;;11.75;11.00;;;;;13.38;100.00;101105.00;4961359;28;45479;-90
2022/10/19 04:16:18;;;;;;;;;13.50;11.00;;;;;13.72;100.00;101146.66;4958033;28;45183;-89
2022/10/19 04:18:44;;;;;;;;;10.75;8.50;;;;;13.94;100.00;101190.41;4957904;28;45223;-89
2022/10/19 04:21:18;;;;;;;;;8.75;8.25;;;;;13.74;100.00;101166.09;4956509;28;46843;-89
2022/10/19 04:23:43;;;;;;;;;9.00;7.75;;;;;13.64;100.00;101163.66;4956234;28;45316;-90
2022/10/19 04:26:09;;;;;;;;;14.75;13.00;;;;;13.93;100.00;101193.97;4957876;28;45486;-90
2022/10/19 04:28:34;;;;;;;;;10.00;10.00;;;;;13.93;100.00;101203.75;4955007;28;45547;-90
2022/10/19 04:31:04;;;;;;;;;16.75;12.50;;;;;13.80;100.00;101179.22;4955229;28;48368;-90
2022/10/19 04:33:30;;;;;;;;;11.25;10.75;;;;;13.78;100.00;101167.78;4942694;28;45592;-88
2022/10/19 04:36:04;;;;;;;;;16.00;14.50;;;;;13.22;100.00;101077.88;4969626;28;45457;-89
2022/10/19 04:38:30;;;;;;;;;12.00;9.50;;;;;14.50;100.00;101285.63;4954281;28;45417;-91
2022/10/19 04:41:01;;;;;;;;;13.50;12.75;;;;;14.01;100.00;101196.44;4964924;28;47369;-89
2022/10/19 04:43:26;;;;;;;;;14.50;13.50;;;;;13.88;100.00;101171.06;4965735;28;45730;-91
2022/10/19 04:45:51;;;;;;;;;14.25;14.25;;;;;13.98;100.00;101197.41;4957655;28;45840;-90
2022/10/19 04:48:16;;;;;;;;;10.75;10.00;;;;;13.97;100.00;101195.66;4960438;28;45504;-91
2022/10/19 04:50:42;;;;;;;;;15.50;13.00;;;;;13.61;100.00;101150.44;4969742;28;47066;-90
2022/10/19 04:53:07;;;;;;;;;16.50;14.75;;;;;13.73;100.00;101159.06;4955663;28;45461;-90
2022/10/19 04:55:32;;;;;;;;;13.00;13.00;;;;;14.28;100.00;101232.09;4976331;28;45521;-91
2022/10/19 04:57:58;;;;;;;;;14.00;12.75;;;;;13.58;100.00;101109.81;4977245;28;45422;-90
2022/10/19 05:00:23;;;;;;;;;15.75;11.25;;;;;13.46;100.00;101071.16;4964765;28;48315;-90
2022/10/19 05:02:49;;;;;;;;;9.00;9.00;;;;;13.63;100.00;101105.25;4977563;28;45369;-90
2022/10/19 05:05:14;;;;;;;;;14.50;13.50;;;;;14.48;100.00;101250.22;4976955;28;45419;-90
2022/10/19 05:07:40;;;;;;;;;17.50;12.50;;;;;14.26;100.00;101202.03;4940184;28;45626;-90
2022/10/19 05:10:07;;;;;;;;;13.00;12.00;;;;;13.14;100.00;101017.00;4939507;28;47860;-90
2022/10/19 05:12:35;;;;;;;;;13.25;11.75;;;;;13.11;100.00;101019.75;4973022;28;45486;-90
2022/10/19 05:15:01;;;;;;;;;10.50;10.50;;;;;13.55;100.00;101092.16;4942190;28;45247;-90
2022/10/19 05:17:30;;;;;;;;;17.25;16.75;;;;;13.10;100.00;101020.63;4950146;28;45402;-90
2022/10/19 05:19:56;;;;;;;;;13.75;12.00;;;;;13.49;100.00;101084.34;4962335;28;48086;-90
2022/10/19 05:22:21;;;;;;;;;17.50;13.50;;;;;14.09;100.00;101190.94;4961714;28;45370;-91
2022/10/19 05:24:47;;;;;;;;;14.00;13.25;;;;;13.72;100.00;101144.03;4960496;28;45477;-90
2022/10/19 05:27:12;;;;;;;;;15.00;14.25;;;;;14.37;100.00;101242.50;4977406;28;45621;-90
2022/10/19 05:29:37;;;;;;;;;14.50;11.00;;;;;14.06;100.00;101183.94;4958727;28;48364;-91
2022/10/19 05:32:02;;;;;;;;;13.00;13.00;;;;;13.71;100.00;101128.97;4973784;28;45837;-90
2022/10/19 05:34:28;;;;;;;;;14.75;13.00;;;;;13.75;100.00;101130.66;4960350;28;45357;-91
2022/10/19 05:36:54;;;;;;;;;16.75;14.50;;;;;13.87;100.00;101159.59;4964221;28;45306;-90
2022/10/19 05:39:20;;;;;;;;;10.50;10.00;;;;;14.32;100.00;101236.44;4995334;28;47028;-90
2022/10/19 05:41:46;;;;;;;;;11.50;11.50;;;;;14.34;100.00;101226.63;4979039;28;45252;-86
2022/10/19 05:44:17;;;;;;;;;16.25;15.50;;;;;14.23;100.00;101191.47;4977676;28;45440;-86
2022/10/19 05:46:43;;;;;;;;;14.75;13.00;;;;;14.32;100.00;101217.81;4974037;28;45564;-86
2022/10/19 05:49:13;;;;;;;;;12.50;10.00;;;;;14.35;100.00;101204.44;4951088;28;47668;-87
2022/10/19 05:51:38;;;;;;;;;15.00;12.50;;;;;13.46;100.00;101060.53;4938825;28;45383;-86
2022/10/19 05:54:04;;;;;;;;;15.50;13.75;;;;;13.58;100.00;101081.47;4939584;28;45460;-87
2022/10/19 05:56:31;;;;;;;;;12.50;12.50;;;;;13.71;100.00;101103.31;4969975;28;45782;-86
2022/10/19 05:58:58;;;;;;;;;15.00;13.00;;;;;13.93;100.00;101155.91;4939008;28;46529;-86
2022/10/19 06:01:23;;;;;;;;;15.00;13.25;;;;;13.74;100.00;101120.94;4938433;28;45321;-87
2022/10/19 06:03:54;;;;;;;;;15.00;13.75;;;;;14.27;100.00;101210.88;4970532;28;45467;-87
2022/10/19 06:06:20;;;;;;;;;11.75;10.00;;;;;13.25;100.00;101052.13;4938778;28;45560;-87
2022/10/19 06:08:46;;;;;;;;;15.50;14.00;;;;;13.40;100.00;101074.81;4941292;28;46014;-86
2022/10/19 06:11:13;;;;;;;;;18.25;12.75;;;;;13.60;100.00;101122.13;4940858;28;45397;-85
2022/10/19 06:13:40;;;;;;;;;16.75;15.00;;;;;13.91;100.00;101155.94;4941979;28;45395;-86
2022/10/19 06:16:06;;;;;;;;;16.50;14.00;;;;;14.03;100.00;101176.03;4939075;28;45370;-86
2022/10/19 06:18:32;;;;;;;;;16.00;13.75;;;;;13.20;100.00;101021.31;4972170;28;47295;-86
2022/10/19 06:21:10;;;;;;;;;12.00;11.00;;;;;14.31;100.00;101215.22;4958054;28;45429;-86
2022/10/19 06:23:35;;;;;;;;;21.50;17.25;;;;;14.28;100.00;101220.59;4958163;28;45546;-86
2022/10/19 06:26:03;;;;;;;;;15.25;13.75;;;;;14.29;100.00;101206.41;4956280;28;45679;-86
2022/10/19 06:28:29;;;;;;;;;19.75;16.00;;;;;13.51;100.00;101074.56;4956903;28;47142;-86
2022/10/19 06:30:56;;;;;;;;;16.00;14.00;;;;;13.66;100.00;101089.25;4958597;28;45502;-85
2022/10/19 06:33:22;;;;;;;;;16.75;15.25;;;;;14.15;100.00;101164.19;4955731;28;45527;-86
2022/10/19 06:35:47;;;;;;;;;14.75;14.50;;;;;13.38;100.00;101035.97;4957455;28;45529;-86
2022/10/19 06:38:12;;;;;;;;;9.75;8.50;;;;;13.84;100.00;101109.19;4972892;28;49061;-86
2022/10/19 06:40:38;;;;;;;;;15.50;13.75;;;;;14.53;100.00;101207.53;4976970;28;45412;-85
2022/10/19 06:43:03;;;;;;;;;13.25;13.00;;;;;13.90;100.00;101109.03;4976437;28;45333;-86
2022/10/19 06:45:29;;;;;;;;;18.25;17.25;;;;;14.58;100.00;101182.56;4976214;28;45572;-86
2022/10/19 06:47:54;;;;;;;;;12.75;10.50;;;;;14.47;100.00;101157.16;4987352;28;47018;-86
2022/10/19 06:50:19;;;;;;;;;17.00;15.00;;;;;14.15;100.00;101069.41;4957676;28;45369;-86
2022/10/19 06:52:45;;;;;;;;;14.75;13.50;;;;;14.99;100.00;101203.66;4957719;28;45559;-86
2022/10/19 06:55:10;;;;;;;;;18.25;14.75;;;;;13.68;100.00;100982.06;4958162;28;45409;-85
2022/10/19 06:57:36;;;;;;;;;14.00;13.00;;;;;14.32;100.00;101079.56;4966880;28;46220;-86
2022/10/19 07:00:03;;;;;;;;;13.75;13.00;;;;;13.82;100.00;101000.28;4956540;28;45393;-87
2022/10/19 07:02:28;;;;;;;;;14.50;13.00;;;;;14.15;100.00;101055.22;4956902;28;45595;-86
2022/10/19 07:04:53;;;;;;;;;13.50;13.50;;;;;14.16;100.00;101033.03;4973011;28;45535;-89
2022/10/19 07:07:19;;;;;;;;;16.25;14.50;;;;;14.56;100.00;101093.06;4956528;28;47928;-90
2022/10/19 07:09:44;;;;;;;;;11.50;11.50;;;;;14.12;100.00;101016.31;4962338;28;45939;-89
2022/10/19 07:12:09;;;;;;;;;12.25;8.75;;;;;14.73;100.00;101090.84;4942915;28;45218;-89
2022/10/19 07:14:38;;;;;;;;;12.00;12.00;;;;;14.83;100.00;101043.53;4976874;28;45618;-89
2022/10/19 07:17:05;;;;;;;;;13.25;12.50;;;;;15.03;100.00;101079.31;4944145;28;46359;-90
2022/10/19 07:19:31;;;;;;;;;11.50;10.75;;;;;15.00;100.00;101058.13;4950396;28;45512;-88
2022/10/19 07:21:56;;;;;;;;;12.50;10.25;;;;;15.23;100.00;101071.59;4955435;28;45623;-90
2022/10/19 07:24:22;;;;;;;;;14.50;13.50;;;;;16.11;98.66;101150.47;4956090;28;45709;-90
2022/10/19 07:26:48;;;;;;;;;13.50;12.75;;;;;15.18;97.23;100990.13;4939033;28;48072;-88
2022/10/19 07:29:13;;;;;;;;;10.50;9.75;;;;;15.00;94.88;100981.81;4952821;28;45262;-90
2022/10/19 07:31:38;;;;;;;;;10.25;7.50;;;;;15.76;95.30;101100.09;4961659;28;45390;-89
2022/10/19 07:34:04;;;;;;;;;13.25;12.00;;;;;15.42;95.63;101055.88;4955992;28;45351;-88
2022/10/19 07:36:32;;;;;;;;;13.75;11.75;;;;;15.68;94.83;101086.13;4964158;28;47510;-88
2022/10/19 07:38:59;;;;;;;;;14.50;14.25;;;;;16.24;96.09;101191.81;4972720;28;45451;-87
2022/10/19 07:41:25;;;;;;;;;13.75;13.00;;;;;15.02;96.42;100977.31;4957764;28;45457;-88
2022/10/19 07:43:51;;;;;;;;;19.75;15.50;;;;;15.83;98.29;101100.78;4964169;28;45571;-88
2022/10/19 07:46:19;;;;;;;;;16.25;15.00;;;;;16.33;96.60;101183.50;4963415;28;47237;-88
2022/10/19 07:48:45;;;;;;;;;16.25;15.00;;;;;15.86;96.81;101111.34;4939999;28;45414;-88
2022/10/19 07:51:13;;;;;;;;;16.75;14.00;;;;;15.37;96.97;101028.56;4941370;28;45256;-88
2022/10/19 07:53:38;;;;;;;;;17.50;15.50;;;;;16.32;96.54;101178.22;4956800;28;45373;-88
2022/10/19 07:56:10;;;;;;;;;17.25;16.50;;;;;15.85;95.84;101101.63;4948355;28;46546;-88
2022/10/19 07:58:36;;;;;;;;;17.50;14.75;;;;;16.12;97.36;101139.78;4937070;28;45390;-88
2022/10/19 08:01:04;;;;;;;;;20.25;15.75;;;;;15.69;96.32;101053.25;4938523;28;45313;-88
2022/10/19 08:03:30;;;;;;;;;18.25;16.50;;;;;15.63;96.34;101048.13;4939664;28;45393;-88
2022/10/19 08:06:00;;;;;;;;;19.50;15.75;;;;;16.02;97.33;101095.72;4953450;28;46391;-88
2022/10/19 08:08:26;;;;;;;;;17.75;15.50;;;;;15.93;95.86;101053.38;4938341;28;45386;-89
2022/10/19 08:10:51;;;;;;;;;16.50;14.00;;;;;15.89;95.98;101031.25;4957979;28;45455;-89
2022/10/19 08:13:16;;;;;;;;;15.75;15.50;;;;;15.75;96.16;100973.09;4956907;28;45405;-89
2022/10/19 08:15:41;;;;;;;;;16.25;15.25;;;;;16.37;93.49;101042.03;4936417;28;47220;-88
2022/10/19 08:18:07;;;;;;;;;18.50;14.00;;;;;16.25;93.22;100974.88;4943675;28;45441;-88
2022/10/19 08:20:32;;;;;;;;;17.00;14.25;;;;;17.17;93.33;101077.28;4938306;28;45489;-88
2022/10/19 08:22:57;;;;;;;;;16.25;15.50;;;;;16.74;88.04;100990.81;4956522;28;45561;-88
2022/10/19 08:25:23;;;;;;;;;16.50;14.25;;;;;17.67;89.65;101085.94;4969514;28;46944;-88
2022/10/19 08:27:48;;;;;;;;;12.75;12.75;;;;;17.72;87.14;101092.84;4937432;28;45401;-89
2022/10/19 08:30:13;;;;;;;;;15.25;13.75;;;;;17.63;85.19;101057.59;4968957;28;45384;-89
2022/10/19 08:32:39;;;;;;;;;15.50;14.75;;;;;18.33;84.85;101165.25;4969359;28;45570;-88
2022/10/19 08:35:05;;;;;;;;;19.50;15.25;;;;;18.01;84.96;101084.56;4943273;28;47559;-89
2022/10/19 08:37:30;;;;;;;;;16.00;14.00;;;;;18.90;87.34;101155.56;4971594;28;45895;-87
2022/10/19 08:39:55;;;;;;;;;16.75;15.00;;;;;18.44;85.77;101035.38;4963982;28;45415;-88
2022/10/19 08:42:36;;;;;;;;;13.00;13.00;;;;;18.67;87.75;101052.19;4955718;28;45629;-88
2022/10/19 08:45:05;;;;;;;;;12.75;12.00;;;;;19.23;81.22;101154.94;4955407;28;47350;-88
2022/10/19 08:47:54;;;;;;;;;11.50;10.75;;;;;19.18;81.64;101151.63;4958260;28;45404;-89
2022/10/19 08:50:38;;;;;;;;;14.25;11.50;;;;;19.05;83.45;101147.78;4958748;28;45448;-88
2022/10/19 08:53:12;;;;;;;;;16.25;13.00;;;;;18.37;80.45;101070.50;4961617;28;45242;-88
2022/10/19 08:55:53;;;;;;;;;12.50;11.75;;;;;18.62;81.71;101146.06;4959746;28;46680;-88
2022/10/19 08:58:26;;;;;;;;;14.50;14.50;;;;;18.11;85.86;101069.84;4947024;28;45547;-88
2022/10/19 09:01:18;;;;;;;;;14.75;13.25;;;;;18.24;84.14;101102.28;4936617;28;45526;-88
2022/10/19 09:04:19;;;;;;;;;14.75;12.25;;;;;17.79;83.80;101057.84;4942786;28;45629;-90
2022/10/19 09:07:08;;;;;;;;;10.50;10.00;;;;;18.42;84.72;101135.41;4931925;28;45520;-87
2022/10/19 09:09:38;;;;;;;;;11.50;11.50;;;;;18.39;82.57;101151.59;4962069;28;45354;-87
2022/10/19 09:12:05;;;;;;;;;13.75;11.75;;;;;17.82;83.08;101041.66;4952517;28;45532;-88
2022/10/19 09:14:37;;;;;;;;;16.00;14.75;;;;;17.65;83.30;100968.41;4970535;28;45543;-89
2022/10/19 09:17:11;;;;;;;;;14.50;12.25;;;;;18.51;87.87;101077.91;4939915;28;46413;-89
2022/10/19 09:19:36;;;;;;;;;12.25;12.25;;;;;18.44;82.43;101038.03;4937276;28;45280;-87
2022/10/19 09:22:07;;;;;;;;;10.50;9.75;;;;;18.83;79.19;101127.31;4936988;28;45290;-88
2022/10/19 09:24:43;;;;;;;;;11.25;11.25;;;;;18.36;80.36;101047.38;4940169;28;45375;-87
2022/10/19 09:27:23;;;;;;;;;12.50;11.75;;;;;18.98;79.93;101121.28;4963627;28;47289;-87
2022/10/19 09:30:16;;;;;;;;;11.25;11.25;;;;;19.33;78.61;101104.47;4953305;28;45443;-89
2022/10/19 09:32:42;;;;;;;;;12.50;10.25;;;;;18.61;75.92;100938.25;4941642;28;45374;-87
2022/10/19 09:35:28;;;;;;;;;12.00;10.75;;;;;20.03;75.83;101118.91;4940492;28;45568;-87
2022/10/19 09:37:55;;;;;;;;;11.50;11.00;;;;;20.00;73.12;101089.53;4953230;28;46929;-88
2022/10/19 09:40:26;;;;;;;;;12.00;12.00;;;;;20.29;74.30;101127.41;4940205;28;45465;-87
2022/10/19 09:43:02;;;;;;;;;12.50;11.50;;;;;20.17;72.79;101096.72;4957204;28;45573;-88
2022/10/19 09:45:27;;;;;;;;;13.00;11.50;;;;;20.35;74.65;101116.34;4948980;28;45460;-88
2022/10/19 09:47:52;;;;;;;;;11.00;11.00;;;;;20.46;75.72;101115.78;4957781;28;48258;-88
2022/10/19 09:50:27;;;;;;;;;10.75;9.75;;;;;19.60;76.13;100960.19;4961368;28;45309;-88
2022/10/19 09:52:55;;;;;;;;;20.75;15.25;;;;;20.57;76.26;101109.84;4958262;28;45479;-88
2022/10/19 09:55:27;;;;;;;;;11.25;11.25;;;;;20.35;73.11;101111.00;4950668;28;45426;-88
2022/10/19 09:58:14;;;;;;;;;10.50;10.50;;;;;19.75;76.53;101009.44;4959834;28;45501;-88
2022/10/19 10:00:46;;;;;;;;;11.25;9.75;;;;;20.47;77.86;101104.13;4953274;28;45488;-88
2022/10/19 10:03:23;;;;;;;;;15.50;11.25;;;;;19.37;73.71;100925.63;4944216;28;45426;-88
2022/10/19 10:05:49;;;;;;;;;10.25;9.00;;;;;19.60;73.09;100992.34;4954754;28;45584;-89
2022/10/19 10:08:18;;;;;;;;;16.00;13.00;;;;;19.92;72.42;101056.00;4946930;28;48147;-89
2022/10/19 10:11:03;;;;;;;;;11.75;10.50;;;;;20.23;74.23;101103.59;4953835;28;45458;-87
2022/10/19 10:13:28;;;;;;;;;12.75;11.75;;;;;19.69;73.50;101007.97;4946988;28;45540;-89
2022/10/19 10:15:58;;;;;;;;;10.75;10.25;;;;;20.27;73.14;101051.50;4968057;28;45388;-86
2022/10/19 10:18:25;;;;;;;;;15.25;11.75;;;;;19.97;73.17;100995.81;4959194;28;47115;-91
2022/10/19 10:20:59;;;;;;;;;12.00;12.00;;;;;20.40;71.65;101039.13;4955803;28;45389;-87
2022/10/19 10:23:28;;;;;;;;;14.75;13.00;;;;;20.33;73.04;101008.22;4957517;28;45530;-88
2022/10/19 10:25:56;;;;;;;;;13.75;12.50;;;;;20.59;71.37;101065.84;4961132;28;45624;-87
2022/10/19 10:28:24;;;;;;;;;15.75;13.00;;;;;19.75;71.26;100938.88;4958046;28;45467;-87
2022/10/19 10:30:58;;;;;;;;;14.75;10.00;;;;;19.64;71.99;100945.66;4949537;28;45828;-87
2022/10/19 10:33:26;;;;;;;;;12.50;11.50;;;;;20.33;72.98;101071.75;4944466;28;45408;-87
2022/10/19 10:35:56;;;;;;;;;11.50;10.50;;;;;20.13;72.78;101068.28;4938770;28;45338;-88
2022/10/19 10:38:29;;;;;;;;;11.00;11.00;;;;;19.57;72.42;100975.53;4941659;28;46126;-89
2022/10/19 10:41:13;;;;;;;;;18.25;13.00;;;;;19.64;74.00;100969.78;4959258;28;45507;-87
2022/10/19 10:43:53;;;;;;;;;12.00;12.00;;;;;19.65;71.94;100968.84;4948949;28;45397;-93
2022/10/19 10:46:23;;;;;;;;;12.25;11.00;;;;;19.27;73.46;100891.28;4959201;28;45416;-91
2022/10/19 10:48:56;;;;;;;;;8.25;8.25;;;;;19.88;71.65;101015.06;4959392;28;46185;-89
2022/10/19 10:51:41;;;;;;;;;11.50;10.25;;;;;20.18;72.33;101062.72;4958308;28;45405;-90
2022/10/19 10:54:27;;;;;;;;;10.00;9.00;;;;;19.43;73.18;100946.75;4959523;28;45333;-90
2022/10/19 10:57:15;;;;;;;;;10.50;10.50;;;;;20.26;75.80;101030.97;4943440;28;45657;-87
2022/10/19 11:00:02;;;;;;;;;11.75;11.75;;;;;20.45;74.07;101019.22;4952055;28;46489;-88
2022/10/19 11:03:15;;;;;;;;;13.25;10.50;;;;;20.27;71.64;100975.47;4966467;28;45621;-87
2022/10/19 11:05:45;;;;;;;;;11.25;10.00;;;;;20.12;74.99;100939.59;4937676;28;45412;-90
2022/10/19 11:08:10;;;;;;;;;10.75;9.50;;;;;20.65;69.89;101042.28;4952060;28;45463;-90
2022/10/19 11:10:45;;;;;;;;;12.50;11.25;;;;;20.38;71.80;100963.19;4960875;28;46343;-92
2022/10/19 11:13:22;;;;;;;;;10.00;10.00;;;;;20.84;71.43;101009.97;4976424;28;46025;-90
2022/10/19 11:16:36;;;;;;;;;12.00;12.00;;;;;21.00;71.17;101021.59;4960613;28;45247;-90
2022/10/19 11:19:15;;;;;;;;;10.75;10.25;;;;;21.00;70.57;100932.91;4943075;28;45503;-90